Flight Track Log - Related Links

Times and Time Zones

All times are in EDT time to prevent confusion due to time zone crossing. See the LXJ262 flight status page for this flight to view local times or setup timezone preferences in your user account.

Time Position Orientation Groundspeed Altitude Reporting Facility
EDT Latitude Longitude Course Direction KTS MPH feet Rate Location/Type
Wed 10:11:05 AM 41.0333 -73.7000 270° West 185 213 1,800  Level New York TRACON
Wed 10:12:05 AM 41.0333 -73.7500 270° West 196 226 3,300 2,050 Climbing New York TRACON
Wed 10:13:05 AM 41.0333 -73.8333 270° West 242 278 5,900 2,550 Climbing New York TRACON
Wed 10:14:05 AM 40.9833 -73.9167 232° Southwest 287 330 8,400 2,550 Climbing New York TRACON
Wed 10:15:05 AM 40.9167 -73.9667 210° Southwest 298 343 11,000 1,800 Climbing New York TRACON
Wed 10:16:05 AM 40.8333 -74.0167 204° Southwest 320 368 12,000 500 Climbing New York TRACON
Wed 10:17:05 AM 40.7500 -74.0833 211° Southwest 340 391 12,000  Level New York TRACON
Wed 10:18:05 AM 40.6667 -74.1167 197° South 339 390 12,000 1,571 Level New York TRACON
Wed 10:19:53 AM 40.5008 -74.1500 189° South 366 421 16,400 2,485 Climbing New York Center
Wed 10:20:54 AM 40.4044 -74.1697 189° South 378 435 19,000 2,700 Climbing New York Center
Wed 10:21:53 AM 40.2933 -74.1942 190° South 392 451 21,800 2,450 Climbing New York Center
Wed 10:22:54 AM 40.1781 -74.2156 188° South 414 476 23,900 1,008 Climbing New York Center
Wed 10:24:04 AM 40.0308 -74.2475 189° South 451 519 24,000 138 Climbing Washington Center
Wed 10:25:04 AM 39.9256 -74.3281 210° Southwest 447 514 24,200 1,424 Climbing Washington Center
Wed 10:26:02 AM 39.8244 -74.4272 217° Southwest 447 514 26,800 2,797 Climbing Washington Center
Wed 10:27:02 AM 39.7278 -74.5500 224° Southwest 469 540 29,700 2,459 Climbing Washington Center
Wed 10:28:04 AM 39.6328 -74.6756 226° Southwest 480 552 31,800 1,475 Climbing Washington Center
Wed 10:29:04 AM 39.5233 -74.8167 225° Southwest 499 574 32,700 2,085 Climbing Washington Center
Wed 10:30:02 AM 39.4283 -74.9442 226° Southwest 505 581 35,900 2,850 Climbing Washington Center
Wed 10:31:04 AM 39.3311 -75.0683 225° Southwest 500 575 38,400 1,967 Climbing Washington Center
Wed 10:32:04 AM 39.2147 -75.1522 209° Southwest 489 563 39,900 814 Climbing Washington Center
Wed 10:33:02 AM 39.0856 -75.2067 198° South 474 545 40,000 50 Climbing Washington Center
Wed 10:34:03 AM 38.9586 -75.2581 197° South 479 551 40,000  Level Washington Center
Wed 10:35:03 AM 38.8317 -75.3119 198° South 485 558 40,000  Level Washington Center
Wed 10:36:02 AM 38.7067 -75.3628 198° South 485 558 40,000  Level Washington Center
Wed 10:37:02 AM 38.5817 -75.4164 199° South 485 558 40,000  Level Washington Center
Wed 10:38:03 AM 38.4544 -75.4672 197° South 480 552 40,000  Level Washington Center
Wed 10:39:04 AM 38.3336 -75.5281 202° Southwest 480 552 40,000  Level Washington Center
Wed 10:40:02 AM 38.2294 -75.5917 206° Southwest 475 547 40,000  Level Washington Center
Wed 10:41:02 AM 38.1125 -75.6736 209° Southwest 470 541 40,000  Level Washington Center
Wed 10:42:04 AM 37.9917 -75.7631 210° Southwest 470 541 40,000  Level Washington Center
Wed 10:43:02 AM 37.8850 -75.8364 208° Southwest 470 541 40,000  Level Washington Center
Wed 10:44:02 AM 37.7661 -75.9306 212° Southwest 470 541 40,000  Level Washington Center
Wed 10:45:03 AM 37.6553 -76.0089 209° Southwest 465 535 40,000  Level Washington Center
Wed 10:46:04 AM 37.5422 -76.0869 209° Southwest 465 535 40,000  Level Washington Center
Wed 10:47:02 AM 37.4503 -76.1517 209° Southwest 465 535 40,000  Level Washington Center
Wed 10:48:02 AM 37.3247 -76.2317 207° Southwest 465 535 40,000  Level Washington Center
Wed 10:49:02 AM 37.2158 -76.3092 210° Southwest 465 535 40,000  Level Washington Center
Wed 10:50:03 AM 37.1047 -76.3836 208° Southwest 465 535 40,000  Level Washington Center
Wed 10:51:03 AM 36.9958 -76.4606 209° Southwest 460 529 40,000  Level Washington Center
Wed 10:52:04 AM 36.8889 -76.5344 209° Southwest 460 529 40,000  Level Washington Center
Wed 10:53:04 AM 36.7797 -76.6111 209° Southwest 460 529 40,000  Level Washington Center
Wed 10:54:02 AM 36.6600 -76.6950 209° Southwest 455 524 40,000  Level Washington Center
Wed 10:55:03 AM 36.5508 -76.7683 208° Southwest 455 524 40,000  Level Washington Center
Wed 10:56:04 AM 36.4542 -76.8314 208° Southwest 450 518 40,000  Level Washington Center
Wed 10:57:02 AM 36.3322 -76.9172 210° Southwest 450 518 40,000  Level Washington Center
Wed 10:58:02 AM 36.2231 -76.9900 208° Southwest 450 518 40,000  Level Washington Center
Wed 10:59:03 AM 36.1136 -77.0653 209° Southwest 450 518 40,000  Level Washington Center
Wed 11:00:03 AM 36.0064 -77.1350 208° Southwest 445 512 40,000  Level Washington Center
Wed 11:01:03 AM 35.9031 -77.2050 209° Southwest 437 503 40,000  Level Washington Center
Wed 11:02:04 AM 35.7936 -77.2769 208° Southwest 437 503 40,000  Level Washington Center
Wed 11:03:02 AM 35.6861 -77.3514 209° Southwest 437 503 40,000  Level Washington Center
Wed 11:04:03 AM 35.5892 -77.4131 207° Southwest 442 509 40,000 -738 Level Washington Center
Wed 11:05:04 AM 35.4817 -77.4847 209° Southwest 437 503 38,500 -1,686 Descending Washington Center
Wed 11:06:04 AM 35.3742 -77.5586 209° Southwest 442 509 36,600 -1,282 Descending Washington Center
Wed 11:07:01 AM 35.2767 -77.6556 219° Southwest 447 514 36,000 -305 Descending Washington Center
Wed 11:08:02 AM 35.1811 -77.7494 219° Southwest 447 514 36,000  Level Washington Center
Wed 11:09:03 AM 35.0894 -77.8486 222° Southwest 453 521 36,000  Level Washington Center
Wed 11:10:04 AM 34.9936 -77.9447 219° Southwest 453 521 36,000  Level Washington Center
Wed 11:11:02 AM 34.9000 -78.0408 220° Southwest 453 521 36,000  Level Washington Center
Wed 11:12:03 AM 34.8125 -78.1394 223° Southwest 440 506 36,000  Level Washington Center
Wed 11:13:03 AM 34.7492 -78.2589 237° Southwest 428 493 36,000 -50 Level Washington Center
Wed 11:14:04 AM 34.6986 -78.3808 243° Southwest 423 487 35,900 -857 Descending Washington Center
Wed 11:15:02 AM 34.6683 -78.5136 255° West 395 455 34,300 -2,643 Descending Washington Center
Wed 11:16:52 AM 34.6133 -78.7478 254° West 410 472 28,500 -2,224 Descending Jacksonville Center
Wed 11:17:52 AM 34.5206 -78.8531 223° Southwest 432 497 28,000 -250 Descending Jacksonville Center
Wed 11:18:52 AM 34.3958 -78.9244 205° Southwest 450 518 28,000 -1,000 Level Jacksonville Center
Wed 11:19:52 AM 34.2767 -78.9850 203° Southwest 461 531 26,000 -1,850 Descending Jacksonville Center
Wed 11:20:52 AM 34.1575 -79.0506 204° Southwest 467 537 24,300 -1,600 Descending Jacksonville Center
Wed 11:21:52 AM 34.0364 -79.1111 203° Southwest 472 543 22,800 -1,700 Descending Jacksonville Center
Wed 11:22:52 AM 33.9256 -79.1708 204° Southwest 466 536 20,900 -1,800 Descending Jacksonville Center
Wed 11:23:52 AM 33.8125 -79.2283 203° Southwest 453 521 19,200 -1,750 Descending Jacksonville Center
Wed 11:24:52 AM 33.7039 -79.3028 210° Southwest 448 516 17,400 -1,800 Descending Jacksonville Center
Wed 11:25:52 AM 33.6017 -79.3767 211° Southwest 438 504 15,600 -1,800 Descending Jacksonville Center
Wed 11:26:52 AM 33.5036 -79.4503 212° Southwest 433 498 13,800 -1,750 Descending Jacksonville Center
Wed 11:27:52 AM 33.4053 -79.5236 212° Southwest 423 487 12,100 -1,450 Descending Jacksonville Center
Wed 11:28:52 AM 33.3156 -79.5942 213° Southwest 413 475 10,900 -1,050 Descending Jacksonville Center
Wed 11:29:52 AM 33.2192 -79.6647 211° Southwest 394 453 10,000 -1,200 Descending Jacksonville Center
Wed 11:30:52 AM 33.1431 -79.7047 204° Southwest 345 397 8,500 -1,900 Descending Jacksonville Center
Wed 11:31:52 AM 33.0750 -79.7444 206° Southwest 300 345 6,200 -1,350 Descending Jacksonville Center
Wed 11:32:52 AM 32.9989 -79.7817 202° Southwest 300 345 5,800 8,900 Descending Jacksonville Center
Wed 11:33:52 AM 32.9225 -79.8214 204° Southwest 300 345 24,000 9,100 Climbing Jacksonville Center
Wed 11:34:52 AM 32.8442 -79.8614 203° Southwest 300 345 24,000  Level Jacksonville Center
Wed 11:35:52 AM 32.7678 -79.9008 203° Southwest 300 345 24,000  Level Jacksonville Center
Wed 11:36:52 AM 32.7514 -79.9089 202° Southwest 300 345 24,000  Level Jacksonville Center
Wed 11:38:00 AM 32.8533 -80.0050 322° Northwest  Level FlightAware Approximate
Wed 11:45:00 AM 32.8833 -80.0333 320° Northwest  Level FlightAware Approximate
Wed 11:46:00 AM 32.8986 -80.0405 320° Northwest  Level Estimated
Wed 11:47:00 AM 32.8986 -80.0405 320° Northwest  Level Estimated
Wed 11:48:00 AM 32.8986 -80.0405 320° Northwest  Level Estimated
Wed 11:49:00 AM 32.8986 -80.0405 320° Northwest  Level Estimated
Wed 11:50:00 AM 32.8986 -80.0405 320° Northwest  Level Estimated
Wed 11:51:00 AM 32.8986 -80.0405 320° Northwest  Level Estimated

Login

Don't have an account? Register now (free) for customized features, flight alerts, and more!